Latest Weather Observations for Outer Harbor (Black Pole)

IDS60801

Issued at 2:05 am CST Tuesday 29 July 2014 (issued every 30 minutes, with the page automatically refreshed every 10 minutes)

About weather observations | Map of weather stations | Latest weather observations for SA | Other Formats
Station Details ID: 023052 Name: BLACK POLE Lat: -34.73 Lon: 138.47 Height: 8.0 m
Data from the previous 72 hours. | See also: Recent months for locations in South Australia
Date/Time
CST
Temp
°C
App
Temp
°C
Dew
Point
Rel
Hum
%
Delta-T
°C
Wind Press
QNH
hPa
Press
MSL
hPa
Rain
since 9 am
mm
Dir
 
Spd
km/h
Gust
km/h
Spd
kts
Gust
kts
29/02:00am - - - - - N 22 24 12 13 - - -
29/01:30am - - - - - N 17 24 9 13 - - -
29/01:00am - - - - - N 20 24 11 13 - - -
29/12:30am - - - - - N 20 24 11 13 - - -
29/12:00am - - - - - N 17 24 9 13 - - -
 
Date/Time
CST
Temp
°C
App
Temp
°C
Dew
Point
Rel
Hum
%
Delta-T
°C
Wind Press
QNH
hPa
Press
MSL
hPa
Rain
since 9 am
mm
Dir
 
Spd
km/h
Gust
km/h
Spd
kts
Gust
kts
28/11:30pm - - - - - N 17 20 9 11 - - -
28/11:00pm - - - - - NNW 19 26 10 14 - - -
28/10:30pm - - - - - N 22 26 12 14 - - -
28/10:00pm - - - - - N 26 30 14 16 - - -
28/09:30pm - - - - - NNW 26 30 14 16 - - -
28/09:00pm - - - - - NNW 24 28 13 15 - - -
28/08:30pm - - - - - N 22 26 12 14 - - -
28/08:00pm - - - - - N 22 26 12 14 - - -
28/07:30pm - - - - - N 22 26 12 14 - - -
28/07:00pm - - - - - NNW 20 24 11 13 - - -
28/06:30pm - - - - - N 22 24 12 13 - - -
28/06:00pm - - - - - N 22 26 12 14 - - -
28/05:30pm - - - - - NNW 22 26 12 14 - - -
28/05:00pm - - - - - NNW 24 28 13 15 - - -
28/04:30pm - - - - - NNW 22 26 12 14 - - -
28/04:00pm - - - - - N 26 30 14 16 - - -
28/03:30pm - - - - - NNW 22 26 12 14 - - -
28/03:00pm - - - - - N 22 26 12 14 - - -
28/02:30pm - - - - - NNW 17 19 9 10 - - -
28/02:00pm - - - - - N 17 20 9 11 - - -
28/01:30pm - - - - - NNW 20 24 11 13 - - -
28/01:00pm - - - - - NNW 20 22 11 12 - - -
28/12:30pm - - - - - N 19 20 10 11 - - -
28/12:00pm - - - - - NNW 19 22 10 12 - - -
28/11:30am - - - - - N 22 28 12 15 - - -
28/11:00am - - - - - N 22 26 12 14 - - -
28/10:30am - - - - - N 22 26 12 14 - - -
28/10:00am - - - - - N 20 24 11 13 - - -
28/09:30am - - - - - N 22 26 12 14 - - -
28/09:00am - - - - - N 22 24 12 13 - - -
28/08:30am - - - - - N 26 30 14 16 - - -
28/08:00am - - - - - N 22 26 12 14 - - -
28/07:30am - - - - - N 22 24 12 13 - - -
28/07:00am - - - - - N 22 26 12 14 - - -
28/06:30am - - - - - N 22 24 12 13 - - -
28/06:00am - - - - - NNW 22 28 12 15 - - -
28/05:30am - - - - - NNW 20 24 11 13 - - -
28/05:00am - - - - - N 17 20 9 11 - - -
28/04:30am - - - - - N 17 20 9 11 - - -
28/04:00am - - - - - N 17 20 9 11 - - -
28/03:30am - - - - - N 15 19 8 10 - - -
28/03:00am - - - - - NNW 17 24 9 13 - - -
28/02:30am - - - - - NNW 17 20 9 11 - - -
28/02:00am - - - - - N 19 24 10 13 - - -
28/01:30am - - - - - N 20 24 11 13 - - -
28/01:00am - - - - - N 22 26 12 14 - - -
28/12:30am - - - - - N 22 26 12 14 - - -
28/12:00am - - - - - N 24 28 13 15 - - -
 
Date/Time
CST
Temp
°C
App
Temp
°C
Dew
Point
Rel
Hum
%
Delta-T
°C
Wind Press
QNH
hPa
Press
MSL
hPa
Rain
since 9 am
mm
Dir
 
Spd
km/h
Gust
km/h
Spd
kts
Gust
kts
27/11:30pm - - - - - N 22 26 12 14 - - -
27/11:00pm - - - - - N 22 26 12 14 - - -
27/10:30pm - - - - - N 22 26 12 14 - - -
27/10:00pm - - - - - N 26 32 14 17 - - -
27/09:30pm - - - - - N 28 32 15 17 - - -
27/09:00pm - - - - - N 26 30 14 16 - - -
27/08:30pm - - - - - N 24 33 13 18 - - -
27/08:00pm - - - - - N 22 26 12 14 - - -
27/07:30pm - - - - - NNE 22 26 12 14 - - -
27/07:00pm - - - - - NNE 20 24 11 13 - - -
27/06:30pm - - - - - NNE 17 20 9 11 - - -
27/06:00pm - - - - - N 20 22 11 12 - - -
27/05:30pm - - - - - N 22 26 12 14 - - -
27/05:00pm - - - - - N 20 22 11 12 - - -
27/04:30pm - - - - - N 22 26 12 14 - - -
27/04:00pm - - - - - N 17 20 9 11 - - -
27/03:30pm - - - - - N 19 20 10 11 - - -
27/03:00pm - - - - - NNW 28 32 15 17 - - -
27/02:30pm - - - - - NNW 30 35 16 19 - - -
27/02:00pm - - - - - NNW 22 32 12 17 - - -
27/01:30pm - - - - - NNW 19 20 10 11 - - -
27/01:00pm - - - - - N 24 28 13 15 - - -
27/12:30pm - - - - - NNW 22 26 12 14 - - -
27/12:00pm - - - - - N 28 33 15 18 - - -
27/11:30am - - - - - N 32 39 17 21 - - -
27/11:00am - - - - - N 28 39 15 21 - - -
27/10:30am - - - - - N 26 32 14 17 - - -
27/10:00am - - - - - N 28 33 15 18 - - -
27/09:30am - - - - - N 26 37 14 20 - - -
27/09:00am - - - - - N 17 22 9 12 - - -
27/08:30am - - - - - NNE 13 17 7 9 - - -
27/08:00am - - - - - NNE 19 24 10 13 - - -
27/07:30am - - - - - NNE 19 26 10 14 - - -
27/07:00am - - - - - NNE 19 20 10 11 - - -
27/06:30am - - - - - NNE 22 26 12 14 - - -
27/06:00am - - - - - NNE 26 32 14 17 - - -
27/05:30am - - - - - N 26 32 14 17 - - -
27/05:00am - - - - - N 28 33 15 18 - - -
27/04:30am - - - - - N 26 32 14 17 - - -
27/04:00am - - - - - NNE 19 24 10 13 - - -
27/03:30am - - - - - NNE 19 22 10 12 - - -
27/03:00am - - - - - NNE 17 19 9 10 - - -
27/02:30am - - - - - NNE 17 20 9 11 - - -
27/02:00am - - - - - NE 17 20 9 11 - - -
27/01:30am - - - - - NE 19 24 10 13 - - -
27/01:00am - - - - - NE 19 22 10 12 - - -
27/12:30am - - - - - NE 19 22 10 12 - - -
27/12:00am - - - - - NE 19 22 10 12 - - -
 
Date/Time
CST
Temp
°C
App
Temp
°C
Dew
Point
Rel
Hum
%
Delta-T
°C
Wind Press
QNH
hPa
Press
MSL
hPa
Rain
since 9 am
mm
Dir
 
Spd
km/h
Gust
km/h
Spd
kts
Gust
kts
26/11:30pm - - - - - NE 20 24 11 13 - - -
26/11:00pm - - - - - NE 17 20 9 11 - - -
26/10:30pm - - - - - NE 19 22 10 12 - - -
26/10:00pm - - - - - NE 19 20 10 11 - - -
26/09:30pm - - - - - NE 17 20 9 11 - - -
26/09:00pm - - - - - NE 15 19 8 10 - - -
26/08:30pm - - - - - NE 13 15 7 8 - - -
26/08:00pm - - - - - ENE 11 13 6 7 - - -
26/07:30pm - - - - - NE 11 11 6 6 - - -
26/07:00pm - - - - - NE 7 7 4 4 - - -
26/06:30pm - - - - - N 6 6 3 3 - - -
26/06:00pm - - - - - NW 7 7 4 4 - - -
26/05:30pm - - - - - NNW 9 11 5 6 - - -
26/05:00pm - - - - - NNW 9 11 5 6 - - -
26/04:30pm - - - - - NNW 13 15 7 8 - - -
26/04:00pm - - - - - NW 17 19 9 10 - - -
26/03:30pm - - - - - NW 17 20 9 11 - - -
26/03:00pm - - - - - NW 17 20 9 11 - - -
26/02:30pm - - - - - NW 9 13 5 7 - - -
26/02:00pm - - - - - WNW 2 6 1 3 - - -
26/01:30pm - - - - - CALM 0 2 0 1 - - -
26/01:00pm - - - - - CALM 0 2 0 1 - - -
26/12:30pm - - - - - NNW 2 4 1 2 - - -
26/12:00pm - - - - - NNW 4 7 2 4 - - -
26/11:30am - - - - - NNE 7 11 4 6 - - -
26/11:00am - - - - - NNE 9 11 5 6 - - -
26/10:30am - - - - - N 9 15 5 8 - - -
26/10:00am - - - - - N 9 11 5 6 - - -
26/09:30am - - - - - N 9 13 5 7 - - -
26/09:00am - - - - - N 9 13 5 7 - - -
26/08:30am - - - - - N 11 15 6 8 - - -
26/08:00am - - - - - NNE 13 15 7 8 - - -
26/07:30am - - - - - NNE 11 15 6 8 - - -
26/07:00am - - - - - NNE 13 15 7 8 - - -
26/06:30am - - - - - NNE 11 13 6 7 - - -
26/06:00am - - - - - NNE 13 15 7 8 - - -
26/05:30am - - - - - NNE 11 11 6 6 - - -
26/05:00am - - - - - NNE 9 11 5 6 - - -
26/04:30am - - - - - NNE 11 13 6 7 - - -
26/04:00am - - - - - NNE 11 13 6 7 - - -
26/03:30am - - - - - NNE 9 11 5 6 - - -
26/03:00am - - - - - NNW 9 13 5 7 - - -
26/02:30am - - - - - WNW 15 17 8 9 - - -

Other Formats:

Comma delimited format used in spreadsheet applications
http://www.bom.gov.au/fwo/IDS60801/IDS60801.95675.axf

JavaScript Object Notation format (JSON) in row-major order
http://www.bom.gov.au/fwo/IDS60801/IDS60801.95675.json